Time;durP1;ratioP1;P1;durP2;ratioP2;P2;SDS_P1;SDS_P2;PMS_P1;PMS_P2;Temp;Humidity;BMP_temperature;BMP_pressure;BME280_temperature;BME280_humidity;BME280_pressure;Samples;Min_cycle;Max_cycle;Signal;HPM_P1;HPM_P2
2022/04/28 00:00:14;;;;;;;18.33;13.37;;;;;;;4.22;83.01;102807.94;4974893;28;20431;-45
2022/04/28 00:02:42;;;;;;;14.50;12.63;;;;;;;4.19;83.43;102813.44;4974318;28;20467;-47
2022/04/28 00:05:10;;;;;;;16.50;12.00;;;;;;;4.14;83.27;102812.91;4974697;28;20431;-47
2022/04/28 00:07:40;;;;;;;25.60;14.87;;;;;;;4.09;83.75;102823.75;4974610;28;20958;-48
2022/04/28 00:10:09;;;;;;;15.10;11.90;;;;;;;4.06;83.91;102820.50;4974652;28;20813;-42
2022/04/28 00:12:37;;;;;;;13.63;12.30;;;;;;;3.99;83.65;102819.22;4973806;28;20474;-48
2022/04/28 00:15:06;;;;;;;18.63;14.23;;;;;;;3.95;84.20;102813.31;4974535;28;20498;-45
2022/04/28 00:17:34;;;;;;;18.60;14.20;;;;;;;3.89;84.77;102805.78;4974357;28;20948;-42
2022/04/28 00:20:02;;;;;;;14.77;12.50;;;;;;;3.88;85.14;102817.31;4974828;28;20434;-43
2022/04/28 00:22:30;;;;;;;20.70;14.07;;;;;;;3.86;85.40;102816.56;4973698;28;20474;-43
2022/04/28 00:24:58;;;;;;;17.03;13.37;;;;;;;3.83;85.47;102814.97;4974080;28;20598;-44
2022/04/28 00:27:26;;;;;;;15.43;13.70;;;;;;;3.83;85.69;102816.75;4974509;28;20434;-43
2022/04/28 00:29:54;;;;;;;19.07;14.87;;;;;;;3.80;85.97;102812.53;4974200;28;20430;-50
2022/04/28 00:32:21;;;;;;;15.20;13.17;;;;;;;3.77;85.59;102815.38;4973315;28;20467;-46
2022/04/28 00:34:49;;;;;;;15.97;14.40;;;;;;;3.74;85.75;102812.94;4973893;28;20485;-45
2022/04/28 00:37:18;;;;;;;16.27;14.30;;;;;;;3.74;86.28;102809.47;4974088;28;20438;-49
2022/04/28 00:39:45;;;;;;;17.03;13.77;;;;;;;3.72;86.61;102811.38;4974132;28;20443;-45
2022/04/28 00:42:15;;;;;;;16.73;14.47;;;;;;;3.70;86.66;102816.72;4973331;28;20474;-48
2022/04/28 00:44:43;;;;;;;16.67;13.50;;;;;;;3.70;86.83;102806.16;4974142;28;20447;-47
2022/04/28 00:47:12;;;;;;;21.63;13.77;;;;;;;3.70;86.93;102818.53;4964552;28;20459;-49
2022/04/28 00:52:27;;;;;;;21.80;13.70;;;;;;;3.66;87.42;102812.63;4973105;28;20594;-44
2022/04/28 00:54:56;;;;;;;17.13;15.00;;;;;;;3.66;87.52;102815.25;4973751;28;20834;-46
2022/04/28 00:57:26;;;;;;;17.10;15.00;;;;;;;3.62;87.43;102813.75;4973732;28;20438;-43
2022/04/28 00:59:54;;;;;;;18.00;14.73;;;;;;;3.63;87.35;102811.97;4973547;28;20442;-45
2022/04/28 01:02:22;;;;;;;23.43;15.60;;;;;;;3.64;87.83;102818.94;4972993;28;20463;-48
2022/04/28 01:04:50;;;;;;;18.03;15.00;;;;;;;3.63;87.78;102812.81;4973452;28;20435;-46
2022/04/28 01:07:18;;;;;;;17.43;15.27;;;;;;;3.63;87.71;102809.34;4973746;28;20446;-48
2022/04/28 01:09:45;;;;;;;14.90;13.50;;;;;;;3.60;87.73;102810.38;4973471;28;20449;-45
2022/04/28 01:12:15;;;;;;;21.40;14.60;;;;;;;3.60;88.07;102807.75;4972698;28;20467;-42
2022/04/28 01:14:45;;;;;;;16.90;13.73;;;;;;;3.59;87.73;102813.09;4973302;28;20977;-45
2022/04/28 01:17:13;;;;;;;16.17;14.50;;;;;;;3.56;87.76;102808.03;4973322;28;20435;-45
2022/04/28 01:19:41;;;;;;;15.53;13.40;;;;;;;3.56;87.85;102815.94;4973293;28;20427;-43
2022/04/28 01:22:10;;;;;;;19.27;13.87;;;;;;;3.54;87.88;102817.84;4972503;28;20462;-43
2022/04/28 01:24:38;;;;;;;17.60;14.90;;;;;;;3.52;87.86;102817.13;4973395;28;20431;-48
2022/04/28 01:27:07;;;;;;;15.93;14.17;;;;;;;3.48;87.64;102826.16;4973465;28;20446;-48
2022/04/28 01:29:35;;;;;;;16.47;14.87;;;;;;;3.45;87.52;102824.56;4973131;28;20435;-44
2022/04/28 01:32:03;;;;;;;15.83;14.33;;;;;;;3.42;87.44;102818.66;4972511;28;20471;-48
2022/04/28 01:34:31;;;;;;;15.80;14.13;;;;;;;3.38;87.26;102822.41;4973440;28;20481;-43
2022/04/28 01:36:59;;;;;;;16.63;14.20;;;;;;;3.34;87.41;102827.06;4973630;28;20448;-47
2022/04/28 01:39:28;;;;;;;19.10;15.40;;;;;;;3.27;87.29;102823.13;4973197;28;20458;-46
2022/04/28 01:41:55;;;;;;;16.53;14.93;;;;;;;3.24;87.95;102816.28;4972025;28;20480;-44
2022/04/28 01:44:23;;;;;;;15.97;14.33;;;;;;;3.25;87.71;102817.13;4973281;28;20489;-46
2022/04/28 01:46:50;;;;;;;17.13;15.33;;;;;;;3.26;87.88;102824.06;4966231;28;20799;-50
2022/04/28 01:49:18;;;;;;;20.23;15.37;;;;;;;3.25;88.32;102827.66;4971092;28;20434;-42
2022/04/28 01:57:17;;;;;;;24.40;16.80;;;;;;;3.19;88.92;102826.28;4973244;28;20446;-46
2022/04/28 01:59:46;;;;;;;23.37;16.17;;;;;;;3.19;88.72;102835.97;4973007;28;20442;-49
2022/04/28 02:02:13;;;;;;;19.37;15.00;;;;;;;3.18;89.06;102835.13;4976044;28;20858;-46
2022/04/28 02:04:41;;;;;;;20.30;16.07;;;;;;;3.17;88.92;102835.19;4976862;28;20841;-48
2022/04/28 02:07:09;;;;;;;26.00;17.87;;;;;;;3.14;89.17;102830.97;4976681;28;20796;-44
2022/04/28 02:09:38;;;;;;;19.00;17.00;;;;;;;3.12;89.14;102843.41;4976933;28;20825;-47
2022/04/28 02:12:07;;;;;;;21.40;15.50;;;;;;;3.10;89.51;102833.91;4976295;28;20825;-45
2022/04/28 02:14:34;;;;;;;22.87;15.33;;;;;;;3.10;89.77;102841.81;4976559;28;20944;-44
2022/04/28 02:17:04;;;;;;;17.47;15.70;;;;;;;3.11;90.00;102830.31;4976526;28;20445;-44
2022/04/28 02:19:32;;;;;;;16.57;14.77;;;;;;;3.11;89.92;102832.94;4976371;28;20434;-47
2022/04/28 02:21:59;;;;;;;18.87;15.90;;;;;;;3.08;90.21;102833.16;4975732;28;21010;-47
2022/04/28 02:24:27;;;;;;;17.97;16.33;;;;;;;3.07;90.34;102834.09;4976562;28;20450;-42
2022/04/28 02:26:56;;;;;;;17.90;14.93;;;;;;;3.05;90.21;102831.56;4976454;28;20941;-43
2022/04/28 02:29:24;;;;;;;21.70;16.60;;;;;;;3.04;90.53;102829.03;4976399;28;20437;-46
2022/04/28 02:31:51;;;;;;;19.90;16.03;;;;;;;3.03;90.44;102832.59;4975524;28;20469;-44
2022/04/28 02:34:19;;;;;;;25.43;16.13;;;;;;;3.00;89.97;102831.00;4976453;28;20434;-43
2022/04/28 02:36:47;;;;;;;19.43;16.43;;;;;;;2.98;90.64;102829.41;4976281;28;20478;-47
2022/04/28 02:39:14;;;;;;;22.67;16.63;;;;;;;2.94;90.40;102826.13;4976342;28;20431;-47
2022/04/28 02:41:42;;;;;;;19.53;17.03;;;;;;;2.92;90.34;102824.53;4975525;28;20554;-49
2022/04/28 02:44:11;;;;;;;19.37;17.37;;;;;;;2.91;90.44;102826.31;4976051;28;20443;-43
2022/04/28 02:46:40;;;;;;;18.97;15.27;;;;;;;2.89;90.76;102827.34;4970375;28;20439;-48
2022/04/28 02:49:07;;;;;;;16.47;14.87;;;;;;;2.88;90.53;102829.16;4972643;28;20437;-44
2022/04/28 02:51:35;;;;;;;16.07;14.47;;;;;;;2.87;90.48;102829.25;4975291;28;20475;-43
2022/04/28 02:54:03;;;;;;;18.70;14.60;;;;;;;2.85;90.97;102825.84;4975831;28;20947;-47
2022/04/28 02:56:30;;;;;;;19.20;14.60;;;;;;;2.85;90.74;102826.69;4975783;28;20482;-47
2022/04/28 02:58:58;;;;;;;26.30;14.77;;;;;;;2.83;90.70;102818.06;4975704;28;20530;-45
2022/04/28 03:01:28;;;;;;;25.10;13.80;;;;;;;2.79;90.33;102816.53;4975273;28;20474;-48
2022/04/28 03:03:56;;;;;;;21.83;17.23;;;;;;;2.80;90.53;102834.06;4976068;28;20438;-46
2022/04/28 03:11:54;;;;;;;25.73;17.13;;;;;;;2.69;90.47;102834.72;4974267;28;20459;-45
2022/04/28 03:14:22;;;;;;;16.60;14.90;;;;;;;2.67;90.35;102830.47;4975728;28;20812;-45
2022/04/28 03:16:51;;;;;;;19.07;16.30;;;;;;;2.66;90.32;102832.25;4975521;28;20486;-47
2022/04/28 03:19:19;;;;;;;19.53;14.47;;;;;;;2.61;90.20;102831.72;4975555;28;20439;-42
2022/04/28 03:21:46;;;;;;;18.63;16.70;;;;;;;2.61;90.87;102836.13;4974696;28;20477;-43
2022/04/28 03:24:14;;;;;;;16.13;14.40;;;;;;;2.60;90.52;102839.69;4975216;28;20442;-45
2022/04/28 03:26:41;;;;;;;17.70;15.90;;;;;;;2.58;91.01;102836.31;4975484;28;20472;-45
2022/04/28 03:29:09;;;;;;;18.43;15.17;;;;;;;2.58;91.06;102838.94;4975466;28;20442;-42
2022/04/28 03:31:37;;;;;;;18.63;16.70;;;;;;;2.57;91.09;102832.81;4974484;28;20470;-46
2022/04/28 03:34:06;;;;;;;23.23;17.37;;;;;;;2.59;91.53;102827.47;4975680;28;20441;-45
2022/04/28 03:36:52;;;;;;;17.67;15.40;;;;;;;2.58;91.51;102828.41;4974886;28;20482;-46
2022/04/28 03:39:20;;;;;;;20.13;16.93;;;;;;;2.58;91.16;102833.69;4975273;28;20525;-47
2022/04/28 03:41:48;;;;;;;21.83;16.87;;;;;;;2.58;91.32;102836.31;4974444;28;20477;-47
2022/04/28 03:44:15;;;;;;;18.50;15.10;;;;;;;2.55;91.32;102839.97;4975074;28;20445;-44
2022/04/28 03:46:43;;;;;;;21.67;17.37;;;;;;;2.54;91.63;102842.72;4969074;28;20439;-45
2022/04/28 03:49:13;;;;;;;17.60;15.50;;;;;;;2.56;91.70;102835.56;4971776;28;20459;-44
2022/04/28 03:51:40;;;;;;;20.70;16.70;;;;;;;2.57;91.97;102837.28;4974046;28;20996;-43
2022/04/28 03:54:08;;;;;;;15.87;14.17;;;;;;;2.57;92.07;102846.00;4974935;28;20828;-45
2022/04/28 03:56:35;;;;;;;19.97;16.30;;;;;;;2.59;91.77;102841.50;4974876;28;20485;-45
2022/04/28 03:59:03;;;;;;;23.87;16.20;;;;;;;2.59;92.18;102845.91;4974763;28;20435;-42
2022/04/28 04:01:31;;;;;;;17.27;15.00;;;;;;;2.60;92.18;102843.16;4973789;28;20481;-47
2022/04/28 04:04:00;;;;;;;20.83;15.10;;;;;;;2.66;91.99;102844.56;4974900;28;20439;-43
2022/04/28 04:06:31;;;;;;;19.43;16.70;;;;;;;2.69;92.08;102845.25;4974491;28;20435;-43
2022/04/28 04:08:58;;;;;;;24.73;17.10;;;;;;;2.76;92.22;102837.81;4974534;28;20948;-46
2022/04/28 04:11:26;;;;;;;21.43;14.80;;;;;;;2.84;92.46;102837.34;4973761;28;20474;-44
2022/04/28 04:13:53;;;;;;;16.70;14.87;;;;;;;2.90;92.67;102842.25;4974430;28;20441;-44
2022/04/28 04:16:21;;;;;;;23.93;16.53;;;;;;;2.97;92.65;102852.28;4974278;28;20479;-44
2022/04/28 04:18:49;;;;;;;16.53;14.83;;;;;;;3.05;92.64;102846.53;4974532;28;20442;-46
2022/04/28 04:21:16;;;;;;;23.90;16.20;;;;;;;3.11;92.65;102844.34;4973741;28;20834;-44
2022/04/28 04:23:45;;;;;;;18.03;16.13;;;;;;;3.22;92.46;102844.53;4973499;28;20533;-43
2022/04/28 04:26:13;;;;;;;16.20;14.43;;;;;;;3.33;92.42;102846.47;4974114;28;20431;-51
2022/04/28 04:28:40;;;;;;;18.43;15.20;;;;;;;3.46;92.68;102852.66;4974120;28;20462;-48
2022/04/28 04:33:53;;;;;;;17.50;14.77;;;;;;;4.17;93.59;102847.03;4974259;28;20439;-46
2022/04/28 04:36:21;;;;;;;17.93;14.37;;;;;;;4.50;92.83;102849.16;4973995;28;20485;-47
2022/04/28 04:38:50;;;;;;;16.73;13.80;;;;;;;4.99;94.02;102847.38;4974013;28;20434;-45
2022/04/28 04:41:17;;;;;;;19.67;14.77;;;;;;;5.48;92.54;102839.41;4973053;28;20467;-46
2022/04/28 04:43:45;;;;;;;16.70;15.00;;;;;;;5.89;91.60;102846.94;4973867;28;20434;-46
2022/04/28 04:46:12;;;;;;;17.37;13.63;;;;;;;6.29;90.46;102856.22;4972060;28;20793;-45
2022/04/28 04:48:40;;;;;;;15.40;13.80;;;;;;;6.77;89.50;102858.69;4966672;28;20932;-45
2022/04/28 04:51:08;;;;;;;15.40;12.80;;;;;;;7.26;88.17;102853.00;4973081;28;20473;-44
2022/04/28 04:53:35;;;;;;;19.63;13.97;;;;;;;7.90;85.72;102859.16;4973686;28;20439;-47
2022/04/28 04:56:05;;;;;;;16.57;13.40;;;;;;;8.56;82.73;102849.97;4973855;28;20438;-46
2022/04/28 04:58:32;;;;;;;14.30;12.90;;;;;;;9.27;80.27;102865.78;4973839;28;20537;-42
2022/04/28 05:01:01;;;;;;;13.90;12.40;;;;;;;9.86;75.91;102854.22;4973064;28;20470;-46
2022/04/28 05:03:29;;;;;;;15.03;12.27;;;;;;;10.28;72.16;102862.75;4973685;28;20434;-46
2022/04/28 05:05:57;;;;;;;16.13;13.27;;;;;;;10.23;69.41;102860.53;4973597;28;20443;-43
2022/04/28 05:08:24;;;;;;;15.90;13.30;;;;;;;10.35;68.75;102864.72;4973631;28;20438;-45
2022/04/28 05:10:52;;;;;;;19.13;14.07;;;;;;;10.42;68.04;102859.66;4972838;28;20469;-49
2022/04/28 05:13:21;;;;;;;16.70;13.63;;;;;;;10.57;67.52;102868.03;4973505;28;20438;-43
2022/04/28 05:15:49;;;;;;;18.03;14.07;;;;;;;10.72;66.53;102872.75;4973562;28;20441;-46
2022/04/28 05:18:17;;;;;;;15.23;13.73;;;;;;;11.31;68.35;102876.84;4973283;28;20483;-50
2022/04/28 05:20:44;;;;;;;14.13;12.70;;;;;;;11.89;66.56;102869.28;4972532;28;20458;-46
2022/04/28 05:23:12;;;;;;;16.07;12.57;;;;;;;12.24;64.94;102866.59;4973357;28;20435;-49
2022/04/28 05:25:40;;;;;;;17.13;13.43;;;;;;;11.77;61.28;102879.38;4973392;28;20511;-51
2022/04/28 05:28:07;;;;;;;16.63;15.20;;;;;;;11.38;61.97;102884.09;4973485;28;20431;-51
2022/04/28 05:30:36;;;;;;;15.73;14.13;;;;;;;10.85;62.82;102896.44;4997252;23;20428;-49
2022/04/28 05:33:04;;;;;;;15.67;14.30;;;;;;;10.23;65.82;102891.69;4965402;28;20440;-51
2022/04/28 05:35:35;;;;;;;12.47;11.47;;;;;;;9.34;69.25;102904.22;4972573;28;20435;-48
2022/04/28 05:38:03;;;;;;;18.17;12.40;;;;;;;9.07;73.47;102901.31;4973348;28;20482;-47
2022/04/28 05:40:30;;;;;;;14.57;12.03;;;;;;;8.79;76.05;102905.53;4972809;28;20899;-50
2022/04/28 05:45:52;;;;;;;13.60;12.40;;;;;;;9.26;78.18;102909.34;4933159;28;20443;-49
2022/04/28 05:48:20;;;;;;;12.70;11.70;;;;;;;10.03;76.06;102907.66;4965135;28;20427;-51
2022/04/28 05:50:48;;;;;;;12.77;11.70;;;;;;;10.71;72.44;102903.09;4972473;28;20459;-52
2022/04/28 05:53:16;;;;;;;12.33;11.33;;;;;;;11.74;71.82;102901.06;4973084;28;20442;-53
2022/04/28 05:55:45;;;;;;;13.50;12.43;;;;;;;12.55;64.09;102899.06;4973005;28;20434;-50
2022/04/28 05:58:13;;;;;;;12.00;11.00;;;;;;;13.06;62.06;102903.53;4972780;28;21053;-53
2022/04/28 06:00:42;;;;;;;11.97;11.20;;;;;;;13.65;59.03;102899.94;4972421;28;20451;-52
2022/04/28 06:03:10;;;;;;;12.40;11.40;;;;;;;14.33;58.60;102900.50;4972890;28;20441;-54
2022/04/28 06:05:38;;;;;;;13.67;12.47;;;;;;;14.56;56.37;102906.00;4973059;28;20438;-52
2022/04/28 06:08:06;;;;;;;13.10;12.00;;;;;;;15.18;54.17;102915.06;4972748;28;20435;-52
2022/04/28 06:10:34;;;;;;;12.77;11.50;;;;;;;15.39;51.25;102912.63;4972967;28;20784;-50
2022/04/28 06:13:01;;;;;;;12.73;11.93;;;;;;;15.03;51.42;102911.44;4972284;28;20999;-54
2022/04/28 06:15:29;;;;;;;14.80;13.80;;;;;;;14.37;53.52;102918.78;4972765;28;20478;-51
2022/04/28 06:17:58;;;;;;;15.83;14.50;;;;;;;13.19;54.79;102925.41;4972769;28;20987;-53
2022/04/28 06:20:28;;;;;;;15.93;14.73;;;;;;;12.06;58.71;102930.81;4972597;28;20538;-50
2022/04/28 06:22:56;;;;;;;18.30;16.70;;;;;;;11.40;62.39;102935.56;4972240;28;20475;-50
2022/04/28 06:25:24;;;;;;;19.30;16.30;;;;;;;10.74;64.34;102950.00;4972675;28;20439;-50
2022/04/28 06:27:52;;;;;;;21.50;17.90;;;;;;;10.27;67.37;102947.28;4972957;28;20525;-53
2022/04/28 06:30:20;;;;;;;30.57;18.80;;;;;;;9.84;70.37;102946.78;4972455;28;20442;-52
2022/04/28 06:32:48;;;;;;;33.50;18.67;;;;;;;9.56;72.06;102950.25;4972300;28;20462;-50
2022/04/28 06:35:15;;;;;;;21.70;19.40;;;;;;;9.20;73.72;102943.69;4972621;28;20433;-52
2022/04/28 06:37:44;;;;;;;25.23;19.07;;;;;;;9.07;77.21;102943.91;4973020;28;20498;-53
2022/04/28 06:40:12;;;;;;;21.30;17.70;;;;;;;8.98;79.12;102942.03;4972660;28;20455;-50
2022/04/28 06:42:43;;;;;;;25.03;18.80;;;;;;;9.22;81.47;102939.91;4972056;28;20471;-48
2022/04/28 06:45:12;;;;;;;21.07;18.83;;;;;;;9.19;80.76;102945.50;4971221;28;20438;-53
2022/04/28 06:47:40;;;;;;;21.87;19.83;;;;;;;9.29;81.63;102945.50;4965473;28;20437;-52
2022/04/28 06:50:09;;;;;;;22.60;19.07;;;;;;;9.26;79.60;102951.97;4976016;28;20430;-53
2022/04/28 06:52:37;;;;;;;25.97;20.73;;;;;;;9.26;80.37;102956.44;4975413;28;20485;-52
2022/04/28 06:55:08;;;;;;;22.77;19.60;;;;;;;9.16;79.31;102958.22;4976118;28;20437;-51
2022/04/28 06:57:37;;;;;;;25.73;21.73;;;;;;;9.43;80.84;102950.50;4975829;28;20470;-51
2022/04/28 07:00:07;;;;;;;21.97;19.30;;;;;;;10.41;84.71;102954.00;4975910;28;20994;-49
2022/04/28 07:02:35;;;;;;;21.07;18.73;;;;;;;11.59;82.11;102954.16;4975184;28;20491;-51
2022/04/28 07:05:04;;;;;;;20.63;18.57;;;;;;;12.81;78.50;102949.94;4975739;28;20445;-48
2022/04/28 07:07:35;;;;;;;22.80;17.70;;;;;;;13.70;67.25;102956.59;4975858;28;20518;-52
2022/04/28 07:10:02;;;;;;;21.17;19.20;;;;;;;14.63;65.43;102958.88;4975763;28;20441;-48
2022/04/28 07:12:33;;;;;;;19.07;17.03;;;;;;;15.29;60.16;102961.22;4974916;28;20550;-52
2022/04/28 07:15:01;;;;;;;17.87;16.07;;;;;;;15.71;56.98;102968.16;4975587;28;21031;-52
2022/04/28 07:17:29;;;;;;;15.70;14.40;;;;;;;16.09;54.57;102967.22;4975397;28;20569;-53
2022/04/28 07:19:56;;;;;;;20.83;16.87;;;;;;;16.28;52.29;102968.59;4975635;28;20431;-51
2022/04/28 07:22:24;;;;;;;31.93;22.27;;;;;;;16.23;53.74;102954.84;4974781;28;20474;-54
2022/04/28 07:24:51;;;;;;;21.57;18.50;;;;;;;16.39;50.55;102952.03;4975421;28;20533;-52
2022/04/28 07:27:20;;;;;;;19.43;17.40;;;;;;;16.52;50.80;102965.69;4975389;28;20465;-54
2022/04/28 07:29:50;;;;;;;15.87;14.60;;;;;;;16.89;50.89;102956.78;4975153;28;21063;-52
2022/04/28 07:32:17;;;;;;;14.80;13.40;;;;;;;17.01;49.22;102950.75;4974425;28;20466;-50
2022/04/28 07:34:48;;;;;;;13.27;12.07;;;;;;;17.08;46.65;102948.97;4975615;28;20458;-49
2022/04/28 07:37:15;;;;;;;18.50;14.27;;;;;;;16.63;50.95;102961.78;4975325;28;20442;-52
2022/04/28 07:39:43;;;;;;;16.03;14.37;;;;;;;16.34;48.32;102952.53;4975440;28;20474;-53
2022/04/28 07:42:10;;;;;;;14.30;12.90;;;;;;;16.31;50.34;102962.84;4974360;28;20475;-53
2022/04/28 07:44:38;;;;;;;15.87;14.50;;;;;;;16.16;50.09;102960.09;4974793;28;20439;-51
2022/04/28 07:47:07;;;;;;;14.93;13.50;;;;;;;15.66;51.16;102965.13;4966121;28;20491;-51
2022/04/28 07:49:36;;;;;;;14.83;12.27;;;;;;;15.21;52.26;102965.78;4936639;29;20428;-54
2022/04/28 07:52:04;;;;;;;12.83;11.37;;;;;;;15.14;52.15;102968.31;4935870;28;20476;-49
2022/04/28 07:54:36;;;;;;;12.83;11.57;;;;;;;14.79;52.59;102964.22;4936416;29;20754;-50
2022/04/28 07:57:04;;;;;;;14.73;12.80;;;;;;;14.65;53.46;102970.28;4936210;29;20451;-50
2022/04/28 07:59:32;;;;;;;13.13;10.27;;;;;;;14.07;53.90;102961.50;4936170;29;20483;-52
2022/04/28 08:02:00;;;;;;;14.00;12.50;;;;;;;14.06;57.32;102974.09;4935528;28;21012;-52
2022/04/28 08:04:29;;;;;;;11.77;10.67;;;;;;;14.19;55.54;102970.91;4936081;29;20437;-51
2022/04/28 08:06:56;;;;;;;13.87;10.13;;;;;;;14.03;54.94;102968.22;4936171;29;20954;-52
2022/04/28 08:09:24;;;;;;;12.33;11.23;;;;;;;14.21;56.13;102974.28;4936057;29;20439;-52
2022/04/28 08:11:52;;;;;;;12.10;10.90;;;;;;;14.64;54.79;102968.59;4935443;28;20468;-54
2022/04/28 08:14:23;;;;;;;11.93;10.97;;;;;;;15.10;53.77;102966.16;4935872;29;20957;-48
2022/04/28 08:16:51;;;;;;;10.60;9.50;;;;;;;15.14;52.66;102967.50;4936088;29;20440;-54
2022/04/28 08:19:19;;;;;;;10.20;8.97;;;;;;;14.75;51.68;102972.81;4935904;29;20503;-48
2022/04/28 08:21:49;;;;;;;9.53;8.53;;;;;;;14.86;51.26;102975.97;4935056;28;20473;-47
2022/04/28 08:24:17;;;;;;;9.67;8.63;;;;;;;14.79;52.35;102972.28;4935750;29;20843;-51
2022/04/28 08:26:45;;;;;;;9.30;8.40;;;;;;;14.74;52.37;102974.63;4935934;29;20482;-51
2022/04/28 08:29:13;;;;;;;10.47;9.50;;;;;;;14.38;52.97;102967.94;4935878;29;20961;-51
2022/04/28 08:31:44;;;;;;;8.80;8.00;;;;;;;14.42;52.70;102963.94;4934856;28;20476;-48
2022/04/28 08:34:13;;;;;;;8.83;8.00;;;;;;;14.37;52.92;102974.31;4935585;29;20435;-50
2022/04/28 08:36:42;;;;;;;9.17;8.37;;;;;;;14.25;52.93;102965.72;4935450;29;20450;-50
2022/04/28 08:39:11;;;;;;;8.20;7.50;;;;;;;14.30;52.28;102962.56;4935566;29;20491;-49
2022/04/28 08:41:44;;;;;;;9.30;7.80;;;;;;;14.47;51.05;102969.63;4934838;28;20471;-51
2022/04/28 08:44:17;;;;;;;9.13;8.23;;;;;;;14.67;50.37;102965.56;4935544;29;20922;-48
2022/04/28 08:46:52;;;;;;;9.20;8.10;;;;;;;14.26;51.13;102970.09;4957188;28;20443;-52
2022/04/28 08:49:22;;;;;;;8.97;8.00;;;;;;;14.40;51.74;102971.28;4971707;28;20425;-51
2022/04/28 08:51:52;;;;;;;10.00;8.37;;;;;;;14.86;51.54;102985.88;4973059;28;21011;-50
2022/04/28 08:54:23;;;;;;;11.90;7.97;;;;;;;15.37;50.20;102976.50;4973833;28;20465;-53
2022/04/28 08:56:52;;;;;;;8.77;6.67;;;;;;;15.79;49.06;102977.00;4973721;28;20913;-52
2022/04/28 08:59:20;;;;;;;13.73;8.47;;;;;;;15.91;47.41;102980.13;4973530;28;21058;-47
2022/04/28 09:01:50;;;;;;;14.00;8.60;;;;;;;15.73;48.97;102984.94;4972986;28;20480;-54
2022/04/28 09:04:18;;;;;;;8.23;7.50;;;;;;;15.89;48.84;102980.28;4973530;28;20435;-53
2022/04/28 09:06:50;;;;;;;8.97;8.10;;;;;;;16.04;48.19;102983.06;4973693;28;20443;-53
2022/04/28 09:09:19;;;;;;;9.00;8.20;;;;;;;15.46;51.24;102980.84;4973454;28;20958;-51
2022/04/28 09:11:50;;;;;;;7.90;7.20;;;;;;;15.71;50.33;102990.47;4972406;28;20493;-51
2022/04/28 09:14:20;;;;;;;9.50;7.13;;;;;;;15.77;49.54;102984.41;4973685;28;20435;-51
2022/04/28 09:16:49;;;;;;;8.17;7.47;;;;;;;15.36;50.18;102978.34;4973377;28;20529;-52
2022/04/28 09:19:22;;;;;;;7.13;6.43;;;;;;;15.68;49.25;102974.69;4973346;28;20481;-52
2022/04/28 09:21:52;;;;;;;12.70;7.77;;;;;;;15.29;48.83;102982.72;4972671;28;20473;-54
2022/04/28 09:24:20;;;;;;;7.77;7.07;;;;;;;15.17;50.61;102976.03;4973192;28;20481;-51
2022/04/28 09:26:53;;;;;;;8.37;5.80;;;;;;;15.48;48.57;102979.66;4973250;28;20445;-51
2022/04/28 09:29:22;;;;;;;8.17;5.80;;;;;;;15.08;47.77;102979.78;4973445;28;20431;-51
2022/04/28 09:31:51;;;;;;;12.47;6.50;;;;;;;15.22;48.46;102979.06;4972266;28;20468;-52
2022/04/28 09:34:47;;;;;;;10.33;4.40;;;;;;;15.13;44.00;102976.56;4973069;28;20435;-49
2022/04/28 09:37:16;;;;;;;4.20;3.83;;;;;;;15.12;43.65;102977.56;4973185;28;20450;-51
2022/04/28 09:42:39;;;;;;;5.07;4.03;;;;;;;15.66;46.29;102974.03;4972510;28;20853;-49
2022/04/28 09:45:08;;;;;;;6.53;4.20;;;;;;;15.20;47.80;102977.56;4972158;28;20431;-54
2022/04/28 09:47:37;;;;;;;6.53;4.50;;;;;;;15.26;47.24;102976.88;4961551;28;20436;-52
2022/04/28 09:50:13;;;;;;;4.43;4.13;;;;;;;15.12;45.51;102977.56;4953961;28;20432;-52
2022/04/28 09:52:43;;;;;;;5.97;4.27;;;;;;;15.02;46.64;102972.41;4953288;28;20542;-53
2022/04/28 09:55:11;;;;;;;5.03;4.50;;;;;;;15.53;44.22;102962.19;4953823;28;20440;-50
2022/04/28 09:57:41;;;;;;;4.77;4.00;;;;;;;15.70;45.46;102964.63;4953675;28;20444;-53
2022/04/28 10:00:10;;;;;;;10.20;4.87;;;;;;;15.81;45.06;102966.91;4953624;28;20993;-47
2022/04/28 10:02:38;;;;;;;7.73;4.20;;;;;;;15.96;44.10;102954.34;4953105;28;20476;-48
2022/04/28 10:05:07;;;;;;;4.97;4.20;;;;;;;16.04;42.34;102956.97;4953769;28;20435;-48
2022/04/28 10:07:36;;;;;;;5.70;4.10;;;;;;;16.07;43.54;102963.03;4953590;28;20435;-52
2022/04/28 10:10:05;;;;;;;4.90;3.90;;;;;;;16.18;42.88;102962.63;4953465;28;20968;-52
2022/04/28 10:12:32;;;;;;;5.67;4.20;;;;;;;16.44;39.89;102955.00;4952733;28;21012;-52
2022/04/28 10:15:06;;;;;;;3.97;3.50;;;;;;;16.03;40.86;102955.34;4953747;28;20432;-51
2022/04/28 10:17:40;;;;;;;4.40;3.60;;;;;;;16.21;42.45;102962.25;4953470;28;20442;-50
2022/04/28 10:20:12;;;;;;;7.63;4.00;;;;;;;16.30;40.23;102953.09;4953477;28;20479;-52
2022/04/28 10:23:02;;;;;;;4.00;3.27;;;;;;;16.35;39.53;102950.69;4956179;28;20502;-48
2022/04/28 10:34:11;;;;;;;3.13;2.93;;;;;;;15.98;40.05;102946.09;4957144;29;20432;-53
2022/04/28 10:36:53;;;;;;;3.83;3.53;;;;;;;15.95;40.58;102955.38;4957057;28;20435;-51
2022/04/28 10:39:35;;;;;;;4.20;3.77;;;;;;;16.45;39.01;102948.59;4956926;28;20809;-52
2022/04/28 10:42:12;;;;;;;7.00;4.73;;;;;;;16.81;38.03;102946.09;4956249;28;20468;-51
2022/04/28 10:44:42;;;;;;;3.60;3.30;;;;;;;16.96;36.70;102947.78;4956936;28;20434;-50
2022/04/28 10:47:22;;;;;;;3.10;2.90;;;;;;;16.65;36.17;102955.19;4963402;28;20968;-48
2022/04/28 10:49:53;;;;;;;9.27;3.87;;;;;;;16.32;38.07;102949.22;4976037;28;20438;-51
2022/04/28 10:52:22;;;;;;;7.07;4.33;;;;;;;16.17;38.12;102952.84;4975436;28;20473;-50
2022/04/28 10:54:53;;;;;;;5.33;4.50;;;;;;;16.03;40.25;102958.03;4976124;28;20430;-50
2022/04/28 10:57:29;;;;;;;8.33;4.93;;;;;;;16.28;39.84;102952.44;4976060;28;20457;-51
2022/04/28 11:00:00;;;;;;;5.10;3.43;;;;;;;15.96;38.81;102962.44;4975805;28;20828;-50
2022/04/28 11:02:44;;;;;;;7.33;3.67;;;;;;;15.97;37.76;102953.34;4975065;28;20635;-53
2022/04/28 11:05:38;;;;;;;4.80;3.83;;;;;;;15.64;40.51;102951.03;4975922;28;20427;-52
2022/04/28 11:08:22;;;;;;;4.83;3.83;;;;;;;15.71;43.04;102960.06;4975805;28;20522;-51
2022/04/28 11:11:17;;;;;;;4.17;3.80;;;;;;;16.44;41.28;102952.31;4974858;28;20446;-52
2022/04/28 11:13:49;;;;;;;4.30;3.47;;;;;;;16.94;40.93;102948.97;4941267;28;20441;-52
2022/04/28 11:16:18;;;;;;;7.23;4.00;;;;;;;16.55;41.51;102946.50;4975679;28;20818;-50
2022/04/28 11:18:47;;;;;;;6.43;4.00;;;;;;;16.36;40.89;102950.53;4975552;28;20778;-54
2022/04/28 11:21:15;;;;;;;7.33;3.67;;;;;;;16.79;39.56;102956.22;4974579;28;20471;-52
2022/04/28 11:23:45;;;;;;;8.47;3.60;;;;;;;17.04;37.75;102955.78;4975634;28;20517;-49
2022/04/28 11:26:14;;;;;;;3.17;2.97;;;;;;;16.55;39.21;102959.97;4975608;28;20530;-52
2022/04/28 11:28:42;;;;;;;3.67;3.33;;;;;;;16.07;40.30;102957.66;4975307;28;20978;-54
2022/04/28 11:31:16;;;;;;;5.20;3.37;;;;;;;15.97;36.36;102958.72;4974467;28;20839;-52
2022/04/28 11:33:47;;;;;;;6.90;3.47;;;;;;;16.21;35.91;102957.72;4974594;28;20472;-53
2022/04/28 11:36:20;;;;;;;5.40;3.27;;;;;;;16.72;37.01;102958.81;5000414;23;20494;-42
2022/04/28 11:38:50;;;;;;;3.70;3.40;;;;;;;16.91;36.70;102952.88;4966998;28;20429;-50
2022/04/28 11:41:23;;;;;;;9.30;3.70;;;;;;;16.61;34.83;102951.16;4974367;28;20477;-46
2022/04/28 11:43:52;;;;;;;5.20;3.50;;;;;;;16.76;33.03;102949.31;4975129;28;20886;-43
2022/04/28 11:46:20;;;;;;;5.10;3.43;;;;;;;16.72;34.86;102944.50;4982684;28;20462;-44
2022/04/28 11:48:54;;;;;;;3.83;3.20;;;;;;;17.25;33.29;102948.78;4988217;28;20430;-42
2022/04/28 11:51:27;;;;;;;7.30;3.37;;;;;;;17.26;35.43;102958.56;4993801;28;21057;-43
2022/04/28 11:53:55;;;;;;;5.50;3.30;;;;;;;17.26;31.79;102950.47;4994342;28;20434;-44
2022/04/28 11:56:25;;;;;;;3.37;3.07;;;;;;;16.48;31.47;102959.84;4994139;28;20465;-50